sensor_id;sensor_type;location;lat;lon;timestamp;P1;durP1;ratioP1;P2;durP2;ratioP2
30173;SDS011;16985;50.814;8.530;2022-08-19T00:01:47;22.63;;;15.80;;
30173;SDS011;16985;50.814;8.530;2022-08-19T00:04:16;22.00;;;15.05;;
30173;SDS011;16985;50.814;8.530;2022-08-19T00:06:44;25.73;;;16.35;;
30173;SDS011;16985;50.814;8.530;2022-08-19T00:09:13;19.45;;;14.70;;
30173;SDS011;16985;50.814;8.530;2022-08-19T00:11:42;24.38;;;15.65;;
30173;SDS011;16985;50.814;8.530;2022-08-19T00:14:10;25.63;;;16.07;;
30173;SDS011;16985;50.814;8.530;2022-08-19T00:16:40;20.65;;;15.20;;
30173;SDS011;16985;50.814;8.530;2022-08-19T00:19:09;21.38;;;16.15;;
30173;SDS011;16985;50.814;8.530;2022-08-19T00:21:36;22.33;;;16.27;;
30173;SDS011;16985;50.814;8.530;2022-08-19T00:24:05;22.00;;;15.40;;
30173;SDS011;16985;50.814;8.530;2022-08-19T00:26:33;20.90;;;14.13;;
30173;SDS011;16985;50.814;8.530;2022-08-19T00:28:59;18.63;;;14.02;;
30173;SDS011;16985;50.814;8.530;2022-08-19T00:31:26;21.73;;;14.48;;
30173;SDS011;16985;50.814;8.530;2022-08-19T00:33:53;21.27;;;14.70;;
30173;SDS011;16985;50.814;8.530;2022-08-19T00:36:19;18.90;;;13.88;;
30173;SDS011;16985;50.814;8.530;2022-08-19T00:38:46;19.20;;;13.43;;
30173;SDS011;16985;50.814;8.530;2022-08-19T00:41:16;16.92;;;13.00;;
30173;SDS011;16985;50.814;8.530;2022-08-19T00:46:36;17.60;;;12.30;;
30173;SDS011;16985;50.814;8.530;2022-08-19T00:52:04;15.05;;;11.88;;
30173;SDS011;16985;50.814;8.530;2022-08-19T00:54:35;16.75;;;12.00;;
30173;SDS011;16985;50.814;8.530;2022-08-19T00:57:03;17.73;;;12.93;;
30173;SDS011;16985;50.814;8.530;2022-08-19T00:59:35;17.25;;;13.15;;
30173;SDS011;16985;50.814;8.530;2022-08-19T01:02:04;18.83;;;13.75;;
30173;SDS011;16985;50.814;8.530;2022-08-19T01:04:30;18.17;;;13.73;;
30173;SDS011;16985;50.814;8.530;2022-08-19T01:06:56;16.70;;;13.43;;
30173;SDS011;16985;50.814;8.530;2022-08-19T01:09:23;18.87;;;13.80;;
30173;SDS011;16985;50.814;8.530;2022-08-19T01:11:49;18.40;;;12.77;;
30173;SDS011;16985;50.814;8.530;2022-08-19T01:14:15;15.85;;;11.68;;
30173;SDS011;16985;50.814;8.530;2022-08-19T01:16:42;17.63;;;11.57;;
30173;SDS011;16985;50.814;8.530;2022-08-19T01:19:26;15.25;;;11.60;;
30173;SDS011;16985;50.814;8.530;2022-08-19T01:21:58;14.55;;;10.77;;
30173;SDS011;16985;50.814;8.530;2022-08-19T01:24:31;14.35;;;10.45;;
30173;SDS011;16985;50.814;8.530;2022-08-19T01:26:57;13.07;;;9.27;;
30173;SDS011;16985;50.814;8.530;2022-08-19T01:29:24;13.43;;;10.52;;
30173;SDS011;16985;50.814;8.530;2022-08-19T01:31:49;11.23;;;8.85;;
30173;SDS011;16985;50.814;8.530;2022-08-19T01:34:17;14.45;;;10.10;;
30173;SDS011;16985;50.814;8.530;2022-08-19T01:36:44;10.45;;;9.20;;
30173;SDS011;16985;50.814;8.530;2022-08-19T01:39:14;11.82;;;8.73;;
30173;SDS011;16985;50.814;8.530;2022-08-19T01:41:44;14.90;;;9.05;;
30173;SDS011;16985;50.814;8.530;2022-08-19T01:44:11;12.40;;;9.50;;
30173;SDS011;16985;50.814;8.530;2022-08-19T01:46:38;12.13;;;9.50;;
30173;SDS011;16985;50.814;8.530;2022-08-19T01:49:04;10.80;;;8.25;;
30173;SDS011;16985;50.814;8.530;2022-08-19T01:53:58;10.43;;;7.82;;
30173;SDS011;16985;50.814;8.530;2022-08-19T01:56:24;11.45;;;7.97;;
30173;SDS011;16985;50.814;8.530;2022-08-19T01:58:54;11.88;;;8.52;;
30173;SDS011;16985;50.814;8.530;2022-08-19T02:01:25;12.57;;;8.05;;
30173;SDS011;16985;50.814;8.530;2022-08-19T02:03:52;12.07;;;8.82;;
30173;SDS011;16985;50.814;8.530;2022-08-19T02:06:20;12.48;;;8.65;;
30173;SDS011;16985;50.814;8.530;2022-08-19T02:08:45;14.70;;;8.43;;
30173;SDS011;16985;50.814;8.530;2022-08-19T02:11:19;12.55;;;8.00;;
30173;SDS011;16985;50.814;8.530;2022-08-19T02:13:51;11.25;;;8.65;;
30173;SDS011;16985;50.814;8.530;2022-08-19T02:16:19;11.02;;;8.45;;
30173;SDS011;16985;50.814;8.530;2022-08-19T02:18:46;9.30;;;8.32;;
30173;SDS011;16985;50.814;8.530;2022-08-19T02:21:16;10.43;;;8.30;;
30173;SDS011;16985;50.814;8.530;2022-08-19T02:23:44;9.82;;;8.52;;
30173;SDS011;16985;50.814;8.530;2022-08-19T02:26:11;11.70;;;9.02;;
30173;SDS011;16985;50.814;8.530;2022-08-19T02:28:37;13.15;;;10.25;;
30173;SDS011;16985;50.814;8.530;2022-08-19T02:31:11;12.63;;;9.73;;
30173;SDS011;16985;50.814;8.530;2022-08-19T02:33:39;13.18;;;9.23;;
30173;SDS011;16985;50.814;8.530;2022-08-19T02:36:06;12.35;;;9.45;;
30173;SDS011;16985;50.814;8.530;2022-08-19T02:38:34;18.38;;;9.75;;
30173;SDS011;16985;50.814;8.530;2022-08-19T02:41:06;14.60;;;10.10;;
30173;SDS011;16985;50.814;8.530;2022-08-19T02:43:38;15.70;;;9.93;;
30173;SDS011;16985;50.814;8.530;2022-08-19T02:48:50;11.68;;;9.25;;
30173;SDS011;16985;50.814;8.530;2022-08-19T02:51:21;13.38;;;9.85;;
30173;SDS011;16985;50.814;8.530;2022-08-19T02:53:52;14.00;;;10.05;;
30173;SDS011;16985;50.814;8.530;2022-08-19T02:56:19;11.77;;;9.00;;
30173;SDS011;16985;50.814;8.530;2022-08-19T02:58:45;10.80;;;9.23;;
30173;SDS011;16985;50.814;8.530;2022-08-19T03:01:19;13.90;;;8.73;;
30173;SDS011;16985;50.814;8.530;2022-08-19T03:03:54;11.73;;;9.10;;
30173;SDS011;16985;50.814;8.530;2022-08-19T03:06:21;14.70;;;10.27;;
30173;SDS011;16985;50.814;8.530;2022-08-19T03:08:48;14.35;;;11.07;;
30173;SDS011;16985;50.814;8.530;2022-08-19T03:13:41;14.43;;;9.60;;
30173;SDS011;16985;50.814;8.530;2022-08-19T03:16:08;13.25;;;10.32;;
30173;SDS011;16985;50.814;8.530;2022-08-19T03:18:35;14.60;;;9.95;;
30173;SDS011;16985;50.814;8.530;2022-08-19T03:21:02;13.77;;;10.20;;
30173;SDS011;16985;50.814;8.530;2022-08-19T03:23:28;14.50;;;11.20;;
30173;SDS011;16985;50.814;8.530;2022-08-19T03:25:54;13.77;;;10.63;;
30173;SDS011;16985;50.814;8.530;2022-08-19T03:28:20;10.82;;;9.70;;
30173;SDS011;16985;50.814;8.530;2022-08-19T03:30:59;18.48;;;10.13;;
30173;SDS011;16985;50.814;8.530;2022-08-19T03:33:33;13.02;;;10.00;;
30173;SDS011;16985;50.814;8.530;2022-08-19T03:36:03;16.80;;;10.90;;
30173;SDS011;16985;50.814;8.530;2022-08-19T03:38:32;13.77;;;9.32;;
30173;SDS011;16985;50.814;8.530;2022-08-19T03:41:02;15.07;;;10.65;;
30173;SDS011;16985;50.814;8.530;2022-08-19T03:43:31;15.07;;;10.75;;
30173;SDS011;16985;50.814;8.530;2022-08-19T03:46:04;11.55;;;9.43;;
30173;SDS011;16985;50.814;8.530;2022-08-19T03:48:33;13.77;;;9.65;;
30173;SDS011;16985;50.814;8.530;2022-08-19T03:51:00;15.75;;;10.85;;
30173;SDS011;16985;50.814;8.530;2022-08-19T03:53:27;14.75;;;10.57;;
30173;SDS011;16985;50.814;8.530;2022-08-19T03:55:55;15.20;;;10.32;;
30173;SDS011;16985;50.814;8.530;2022-08-19T03:58:24;15.13;;;10.70;;
30173;SDS011;16985;50.814;8.530;2022-08-19T04:00:53;16.50;;;9.65;;
30173;SDS011;16985;50.814;8.530;2022-08-19T04:03:26;15.27;;;9.90;;
30173;SDS011;16985;50.814;8.530;2022-08-19T04:05:52;12.15;;;8.95;;
30173;SDS011;16985;50.814;8.530;2022-08-19T04:08:18;10.93;;;8.32;;
30173;SDS011;16985;50.814;8.530;2022-08-19T04:10:47;13.35;;;9.40;;
30173;SDS011;16985;50.814;8.530;2022-08-19T04:13:14;12.23;;;9.32;;
30173;SDS011;16985;50.814;8.530;2022-08-19T04:15:43;13.65;;;9.63;;
30173;SDS011;16985;50.814;8.530;2022-08-19T04:18:11;13.18;;;9.40;;
30173;SDS011;16985;50.814;8.530;2022-08-19T04:20:46;16.20;;;9.10;;
30173;SDS011;16985;50.814;8.530;2022-08-19T04:23:13;13.35;;;9.70;;
30173;SDS011;16985;50.814;8.530;2022-08-19T04:25:41;13.15;;;8.77;;
30173;SDS011;16985;50.814;8.530;2022-08-19T04:28:09;14.85;;;10.15;;
30173;SDS011;16985;50.814;8.530;2022-08-19T04:30:41;13.18;;;9.65;;
30173;SDS011;16985;50.814;8.530;2022-08-19T04:33:13;11.63;;;9.60;;
30173;SDS011;16985;50.814;8.530;2022-08-19T04:35:43;12.68;;;10.50;;
30173;SDS011;16985;50.814;8.530;2022-08-19T04:38:12;13.98;;;9.10;;
30173;SDS011;16985;50.814;8.530;2022-08-19T04:40:40;15.38;;;10.88;;
30173;SDS011;16985;50.814;8.530;2022-08-19T04:43:31;12.68;;;9.93;;
30173;SDS011;16985;50.814;8.530;2022-08-19T04:45:58;19.17;;;10.85;;
30173;SDS011;16985;50.814;8.530;2022-08-19T04:48:35;13.65;;;10.00;;
30173;SDS011;16985;50.814;8.530;2022-08-19T04:51:05;14.60;;;10.88;;
30173;SDS011;16985;50.814;8.530;2022-08-19T04:53:35;15.57;;;10.00;;
30173;SDS011;16985;50.814;8.530;2022-08-19T04:56:20;14.95;;;10.45;;
30173;SDS011;16985;50.814;8.530;2022-08-19T04:58:49;18.58;;;10.57;;
30173;SDS011;16985;50.814;8.530;2022-08-19T05:01:21;13.20;;;9.82;;
30173;SDS011;16985;50.814;8.530;2022-08-19T05:03:50;14.23;;;10.98;;
30173;SDS011;16985;50.814;8.530;2022-08-19T05:06:18;14.38;;;10.48;;
30173;SDS011;16985;50.814;8.530;2022-08-19T05:08:46;14.00;;;10.10;;
30173;SDS011;16985;50.814;8.530;2022-08-19T05:11:24;13.15;;;8.68;;
30173;SDS011;16985;50.814;8.530;2022-08-19T05:13:53;15.25;;;9.65;;
30173;SDS011;16985;50.814;8.530;2022-08-19T05:16:20;14.73;;;9.13;;
30173;SDS011;16985;50.814;8.530;2022-08-19T05:21:33;13.18;;;9.60;;
30173;SDS011;16985;50.814;8.530;2022-08-19T05:24:18;11.85;;;8.18;;
30173;SDS011;16985;50.814;8.530;2022-08-19T05:26:46;13.25;;;9.73;;
30173;SDS011;16985;50.814;8.530;2022-08-19T05:29:16;11.18;;;8.45;;
30173;SDS011;16985;50.814;8.530;2022-08-19T05:31:45;14.70;;;9.07;;
30173;SDS011;16985;50.814;8.530;2022-08-19T05:34:14;12.20;;;8.70;;
30173;SDS011;16985;50.814;8.530;2022-08-19T05:36:42;11.98;;;8.02;;
30173;SDS011;16985;50.814;8.530;2022-08-19T05:39:14;13.00;;;7.93;;
30173;SDS011;16985;50.814;8.530;2022-08-19T05:41:44;10.40;;;7.35;;
30173;SDS011;16985;50.814;8.530;2022-08-19T05:44:13;10.18;;;7.78;;
30173;SDS011;16985;50.814;8.530;2022-08-19T05:46:40;9.43;;;7.33;;
30173;SDS011;16985;50.814;8.530;2022-08-19T05:49:12;14.55;;;7.00;;
30173;SDS011;16985;50.814;8.530;2022-08-19T05:51:40;14.95;;;6.95;;
30173;SDS011;16985;50.814;8.530;2022-08-19T05:54:06;12.95;;;6.82;;
30173;SDS011;16985;50.814;8.530;2022-08-19T05:56:33;15.38;;;8.70;;
30173;SDS011;16985;50.814;8.530;2022-08-19T05:59:03;14.98;;;7.57;;
30173;SDS011;16985;50.814;8.530;2022-08-19T06:01:33;11.80;;;7.30;;
30173;SDS011;16985;50.814;8.530;2022-08-19T06:04:00;15.80;;;7.50;;
30173;SDS011;16985;50.814;8.530;2022-08-19T06:06:27;17.85;;;8.40;;
30173;SDS011;16985;50.814;8.530;2022-08-19T06:08:53;12.60;;;7.35;;
30173;SDS011;16985;50.814;8.530;2022-08-19T06:11:21;13.48;;;6.93;;
30173;SDS011;16985;50.814;8.530;2022-08-19T06:14:00;10.05;;;6.68;;
30173;SDS011;16985;50.814;8.530;2022-08-19T06:16:34;9.07;;;6.15;;
30173;SDS011;16985;50.814;8.530;2022-08-19T06:19:13;10.65;;;6.40;;
30173;SDS011;16985;50.814;8.530;2022-08-19T06:24:12;7.80;;;6.30;;
30173;SDS011;16985;50.814;8.530;2022-08-19T06:26:42;8.57;;;5.75;;
30173;SDS011;16985;50.814;8.530;2022-08-19T06:29:12;12.70;;;7.53;;
30173;SDS011;16985;50.814;8.530;2022-08-19T06:31:41;8.98;;;5.38;;
30173;SDS011;16985;50.814;8.530;2022-08-19T06:34:10;12.27;;;6.10;;
30173;SDS011;16985;50.814;8.530;2022-08-19T06:36:41;12.10;;;6.30;;
30173;SDS011;16985;50.814;8.530;2022-08-19T06:39:12;8.50;;;5.78;;
30173;SDS011;16985;50.814;8.530;2022-08-19T06:41:45;7.55;;;5.35;;
30173;SDS011;16985;50.814;8.530;2022-08-19T06:44:16;10.13;;;6.70;;
30173;SDS011;16985;50.814;8.530;2022-08-19T06:46:46;12.95;;;6.63;;
30173;SDS011;16985;50.814;8.530;2022-08-19T06:49:14;9.23;;;6.10;;
30173;SDS011;16985;50.814;8.530;2022-08-19T06:51:42;13.18;;;6.63;;
30173;SDS011;16985;50.814;8.530;2022-08-19T06:54:12;9.52;;;5.32;;
30173;SDS011;16985;50.814;8.530;2022-08-19T06:56:40;10.07;;;5.55;;
30173;SDS011;16985;50.814;8.530;2022-08-19T06:59:09;9.02;;;5.30;;
30173;SDS011;16985;50.814;8.530;2022-08-19T07:01:39;9.27;;;4.97;;
30173;SDS011;16985;50.814;8.530;2022-08-19T07:04:10;11.73;;;5.57;;
30173;SDS011;16985;50.814;8.530;2022-08-19T07:06:37;7.97;;;5.20;;
30173;SDS011;16985;50.814;8.530;2022-08-19T07:09:07;14.52;;;6.38;;
30173;SDS011;16985;50.814;8.530;2022-08-19T07:11:34;7.45;;;4.88;;
30173;SDS011;16985;50.814;8.530;2022-08-19T07:14:01;8.75;;;5.00;;
30173;SDS011;16985;50.814;8.530;2022-08-19T07:16:27;6.30;;;4.50;;
30173;SDS011;16985;50.814;8.530;2022-08-19T07:18:54;7.13;;;5.13;;
30173;SDS011;16985;50.814;8.530;2022-08-19T07:21:22;5.75;;;4.13;;
30173;SDS011;16985;50.814;8.530;2022-08-19T07:23:53;7.28;;;5.50;;
30173;SDS011;16985;50.814;8.530;2022-08-19T07:26:25;5.65;;;4.28;;
30173;SDS011;16985;50.814;8.530;2022-08-19T07:28:55;7.10;;;4.60;;
30173;SDS011;16985;50.814;8.530;2022-08-19T07:31:23;6.18;;;4.55;;
30173;SDS011;16985;50.814;8.530;2022-08-19T07:33:52;7.68;;;4.55;;
30173;SDS011;16985;50.814;8.530;2022-08-19T07:36:22;7.28;;;4.55;;
30173;SDS011;16985;50.814;8.530;2022-08-19T07:38:51;7.57;;;5.00;;
30173;SDS011;16985;50.814;8.530;2022-08-19T07:41:21;7.65;;;4.30;;
30173;SDS011;16985;50.814;8.530;2022-08-19T07:43:49;7.00;;;4.63;;
30173;SDS011;16985;50.814;8.530;2022-08-19T07:46:16;7.30;;;5.40;;
30173;SDS011;16985;50.814;8.530;2022-08-19T07:48:45;9.93;;;4.47;;
30173;SDS011;16985;50.814;8.530;2022-08-19T07:51:14;6.35;;;5.03;;
30173;SDS011;16985;50.814;8.530;2022-08-19T07:53:43;7.85;;;5.00;;
30173;SDS011;16985;50.814;8.530;2022-08-19T07:56:12;6.20;;;4.43;;
30173;SDS011;16985;50.814;8.530;2022-08-19T07:58:39;9.35;;;4.70;;
30173;SDS011;16985;50.814;8.530;2022-08-19T08:01:13;6.10;;;4.47;;
30173;SDS011;16985;50.814;8.530;2022-08-19T08:03:49;7.68;;;4.78;;
30173;SDS011;16985;50.814;8.530;2022-08-19T08:06:36;13.38;;;5.65;;
30173;SDS011;16985;50.814;8.530;2022-08-19T08:09:23;9.23;;;5.90;;
30173;SDS011;16985;50.814;8.530;2022-08-19T08:11:59;9.55;;;5.88;;
30173;SDS011;16985;50.814;8.530;2022-08-19T08:14:34;8.05;;;6.07;;
30173;SDS011;16985;50.814;8.530;2022-08-19T08:17:05;6.00;;;4.85;;
30173;SDS011;16985;50.814;8.530;2022-08-19T08:21:59;7.63;;;5.20;;
30173;SDS011;16985;50.814;8.530;2022-08-19T08:24:26;9.63;;;7.18;;
30173;SDS011;16985;50.814;8.530;2022-08-19T08:26:59;8.55;;;6.35;;
30173;SDS011;16985;50.814;8.530;2022-08-19T08:29:29;6.53;;;5.68;;
30173;SDS011;16985;50.814;8.530;2022-08-19T08:31:56;7.85;;;6.13;;
30173;SDS011;16985;50.814;8.530;2022-08-19T08:34:22;9.93;;;6.75;;
30173;SDS011;16985;50.814;8.530;2022-08-19T08:36:48;8.23;;;6.38;;
30173;SDS011;16985;50.814;8.530;2022-08-19T08:39:16;10.82;;;5.30;;
30173;SDS011;16985;50.814;8.530;2022-08-19T08:41:46;9.05;;;5.53;;
30173;SDS011;16985;50.814;8.530;2022-08-19T08:44:55;8.48;;;5.40;;
30173;SDS011;16985;50.814;8.530;2022-08-19T08:50:20;7.18;;;5.22;;
30173;SDS011;16985;50.814;8.530;2022-08-19T08:53:01;7.72;;;5.47;;
30173;SDS011;16985;50.814;8.530;2022-08-19T08:55:30;7.53;;;4.78;;
30173;SDS011;16985;50.814;8.530;2022-08-19T08:58:04;5.55;;;4.05;;
30173;SDS011;16985;50.814;8.530;2022-08-19T09:00:42;6.75;;;4.45;;
30173;SDS011;16985;50.814;8.530;2022-08-19T09:03:18;5.53;;;4.03;;
30173;SDS011;16985;50.814;8.530;2022-08-19T09:08:38;6.70;;;3.90;;
30173;SDS011;16985;50.814;8.530;2022-08-19T09:11:06;5.90;;;4.60;;
30173;SDS011;16985;50.814;8.530;2022-08-19T09:13:53;7.50;;;4.40;;
30173;SDS011;16985;50.814;8.530;2022-08-19T09:16:33;5.55;;;3.75;;
30173;SDS011;16985;50.814;8.530;2022-08-19T09:19:04;4.47;;;3.85;;
30173;SDS011;16985;50.814;8.530;2022-08-19T09:21:32;6.18;;;4.32;;
30173;SDS011;16985;50.814;8.530;2022-08-19T09:23:59;7.32;;;4.18;;
30173;SDS011;16985;50.814;8.530;2022-08-19T09:26:26;6.30;;;4.20;;
30173;SDS011;16985;50.814;8.530;2022-08-19T09:28:53;4.30;;;3.83;;
30173;SDS011;16985;50.814;8.530;2022-08-19T09:31:24;6.07;;;4.20;;
30173;SDS011;16985;50.814;8.530;2022-08-19T09:33:53;7.68;;;4.32;;
30173;SDS011;16985;50.814;8.530;2022-08-19T09:36:22;5.50;;;4.13;;
30173;SDS011;16985;50.814;8.530;2022-08-19T09:38:50;7.45;;;5.15;;
30173;SDS011;16985;50.814;8.530;2022-08-19T09:41:20;4.90;;;4.32;;
30173;SDS011;16985;50.814;8.530;2022-08-19T09:43:49;6.55;;;4.22;;
30173;SDS011;16985;50.814;8.530;2022-08-19T09:46:21;6.75;;;4.30;;
30173;SDS011;16985;50.814;8.530;2022-08-19T09:48:49;7.75;;;4.45;;
30173;SDS011;16985;50.814;8.530;2022-08-19T09:51:18;7.55;;;4.82;;
30173;SDS011;16985;50.814;8.530;2022-08-19T09:53:49;5.88;;;5.22;;
30173;SDS011;16985;50.814;8.530;2022-08-19T09:56:17;8.35;;;4.57;;
30173;SDS011;16985;50.814;8.530;2022-08-19T09:58:45;7.82;;;4.53;;
30173;SDS011;16985;50.814;8.530;2022-08-19T10:01:16;4.50;;;3.92;;
30173;SDS011;16985;50.814;8.530;2022-08-19T10:03:51;5.50;;;4.10;;
30173;SDS011;16985;50.814;8.530;2022-08-19T10:06:21;4.85;;;4.10;;
30173;SDS011;16985;50.814;8.530;2022-08-19T10:08:50;5.43;;;4.72;;
30173;SDS011;16985;50.814;8.530;2022-08-19T10:11:17;5.07;;;4.40;;
30173;SDS011;16985;50.814;8.530;2022-08-19T10:16:12;5.47;;;4.00;;
30173;SDS011;16985;50.814;8.530;2022-08-19T10:18:43;9.82;;;4.95;;
30173;SDS011;16985;50.814;8.530;2022-08-19T10:21:14;6.18;;;5.18;;
30173;SDS011;16985;50.814;8.530;2022-08-19T10:23:46;9.40;;;5.28;;
30173;SDS011;16985;50.814;8.530;2022-08-19T10:26:15;6.47;;;4.22;;
30173;SDS011;16985;50.814;8.530;2022-08-19T10:28:47;6.40;;;5.00;;
30173;SDS011;16985;50.814;8.530;2022-08-19T10:31:15;5.53;;;4.20;;
30173;SDS011;16985;50.814;8.530;2022-08-19T10:33:48;5.20;;;4.00;;
30173;SDS011;16985;50.814;8.530;2022-08-19T10:36:17;5.50;;;4.47;;
30173;SDS011;16985;50.814;8.530;2022-08-19T10:38:46;5.28;;;4.78;;
30173;SDS011;16985;50.814;8.530;2022-08-19T10:41:19;4.82;;;4.32;;
30173;SDS011;16985;50.814;8.530;2022-08-19T10:43:50;4.85;;;4.35;;
30173;SDS011;16985;50.814;8.530;2022-08-19T10:46:24;5.22;;;4.55;;
30173;SDS011;16985;50.814;8.530;2022-08-19T10:48:52;4.32;;;3.92;;
30173;SDS011;16985;50.814;8.530;2022-08-19T10:51:19;4.65;;;3.72;;
30173;SDS011;16985;50.814;8.530;2022-08-19T10:54:04;7.13;;;3.92;;
30173;SDS011;16985;50.814;8.530;2022-08-19T10:56:31;5.10;;;4.30;;
30173;SDS011;16985;50.814;8.530;2022-08-19T10:59:16;5.78;;;4.72;;
30173;SDS011;16985;50.814;8.530;2022-08-19T11:01:52;4.65;;;4.10;;
30173;SDS011;16985;50.814;8.530;2022-08-19T11:04:20;8.57;;;4.13;;
30173;SDS011;16985;50.814;8.530;2022-08-19T11:06:48;8.98;;;4.78;;
30173;SDS011;16985;50.814;8.530;2022-08-19T11:09:16;6.05;;;4.85;;
30173;SDS011;16985;50.814;8.530;2022-08-19T11:11:51;4.72;;;4.25;;
30173;SDS011;16985;50.814;8.530;2022-08-19T11:14:18;5.07;;;4.07;;
30173;SDS011;16985;50.814;8.530;2022-08-19T11:16:46;5.13;;;3.65;;
30173;SDS011;16985;50.814;8.530;2022-08-19T11:19:13;5.57;;;3.75;;
30173;SDS011;16985;50.814;8.530;2022-08-19T11:21:43;4.30;;;3.90;;
30173;SDS011;16985;50.814;8.530;2022-08-19T11:24:16;4.57;;;4.18;;
30173;SDS011;16985;50.814;8.530;2022-08-19T11:26:45;7.47;;;4.18;;
30173;SDS011;16985;50.814;8.530;2022-08-19T11:29:14;4.25;;;3.85;;
30173;SDS011;16985;50.814;8.530;2022-08-19T11:31:44;4.45;;;4.05;;
30173;SDS011;16985;50.814;8.530;2022-08-19T11:34:18;4.82;;;4.32;;
30173;SDS011;16985;50.814;8.530;2022-08-19T11:36:47;6.00;;;3.70;;
30173;SDS011;16985;50.814;8.530;2022-08-19T11:39:16;4.13;;;3.70;;
30173;SDS011;16985;50.814;8.530;2022-08-19T11:41:45;3.78;;;3.47;;
30173;SDS011;16985;50.814;8.530;2022-08-19T11:44:12;6.97;;;3.50;;
30173;SDS011;16985;50.814;8.530;2022-08-19T11:46:39;6.03;;;3.28;;
30173;SDS011;16985;50.814;8.530;2022-08-19T11:49:10;3.55;;;3.10;;
30173;SDS011;16985;50.814;8.530;2022-08-19T11:51:37;3.80;;;3.10;;
30173;SDS011;16985;50.814;8.530;2022-08-19T11:54:04;4.18;;;3.20;;
30173;SDS011;16985;50.814;8.530;2022-08-19T11:56:31;4.97;;;2.75;;
30173;SDS011;16985;50.814;8.530;2022-08-19T11:58:57;3.42;;;3.03;;
30173;SDS011;16985;50.814;8.530;2022-08-19T12:01:26;4.45;;;4.05;;
30173;SDS011;16985;50.814;8.530;2022-08-19T12:03:53;4.63;;;4.18;;
30173;SDS011;16985;50.814;8.530;2022-08-19T12:06:22;6.75;;;4.20;;
30173;SDS011;16985;50.814;8.530;2022-08-19T12:08:53;6.45;;;4.70;;
30173;SDS011;16985;50.814;8.530;2022-08-19T12:11:20;6.35;;;5.00;;
30173;SDS011;16985;50.814;8.530;2022-08-19T12:13:47;6.25;;;4.78;;
30173;SDS011;16985;50.814;8.530;2022-08-19T12:16:19;5.95;;;4.90;;
30173;SDS011;16985;50.814;8.530;2022-08-19T12:18:51;6.85;;;5.15;;
30173;SDS011;16985;50.814;8.530;2022-08-19T12:21:19;6.13;;;5.20;;
30173;SDS011;16985;50.814;8.530;2022-08-19T12:23:49;5.95;;;5.30;;
30173;SDS011;16985;50.814;8.530;2022-08-19T12:26:16;5.78;;;5.18;;
30173;SDS011;16985;50.814;8.530;2022-08-19T12:28:42;5.65;;;5.15;;
30173;SDS011;16985;50.814;8.530;2022-08-19T12:31:08;6.15;;;5.55;;
30173;SDS011;16985;50.814;8.530;2022-08-19T12:33:37;6.57;;;5.28;;
30173;SDS011;16985;50.814;8.530;2022-08-19T12:36:05;6.05;;;5.45;;
30173;SDS011;16985;50.814;8.530;2022-08-19T12:38:33;6.38;;;5.28;;
30173;SDS011;16985;50.814;8.530;2022-08-19T12:41:03;6.57;;;4.93;;
30173;SDS011;16985;50.814;8.530;2022-08-19T12:43:34;7.35;;;5.43;;
30173;SDS011;16985;50.814;8.530;2022-08-19T12:46:00;6.00;;;4.85;;
30173;SDS011;16985;50.814;8.530;2022-08-19T12:48:27;5.20;;;4.75;;
30173;SDS011;16985;50.814;8.530;2022-08-19T12:50:54;5.57;;;4.80;;
30173;SDS011;16985;50.814;8.530;2022-08-19T12:53:19;6.53;;;4.95;;
30173;SDS011;16985;50.814;8.530;2022-08-19T12:55:45;5.00;;;4.45;;
30173;SDS011;16985;50.814;8.530;2022-08-19T12:58:11;4.65;;;4.18;;
30173;SDS011;16985;50.814;8.530;2022-08-19T13:00:37;5.70;;;4.22;;
30173;SDS011;16985;50.814;8.530;2022-08-19T13:03:04;4.75;;;4.30;;
30173;SDS011;16985;50.814;8.530;2022-08-19T13:05:30;5.20;;;4.70;;
30173;SDS011;16985;50.814;8.530;2022-08-19T13:07:58;6.25;;;3.75;;
30173;SDS011;16985;50.814;8.530;2022-08-19T13:10:27;4.53;;;4.13;;
30173;SDS011;16985;50.814;8.530;2022-08-19T13:13:05;4.32;;;3.92;;
30173;SDS011;16985;50.814;8.530;2022-08-19T13:15:34;5.10;;;3.42;;
30173;SDS011;16985;50.814;8.530;2022-08-19T13:18:02;7.25;;;4.05;;
30173;SDS011;16985;50.814;8.530;2022-08-19T13:20:28;6.63;;;4.25;;
30173;SDS011;16985;50.814;8.530;2022-08-19T13:23:04;5.03;;;4.53;;
30173;SDS011;16985;50.814;8.530;2022-08-19T13:25:30;6.45;;;4.18;;
30173;SDS011;16985;50.814;8.530;2022-08-19T13:27:56;7.53;;;4.00;;
30173;SDS011;16985;50.814;8.530;2022-08-19T13:30:22;6.20;;;3.72;;
30173;SDS011;16985;50.814;8.530;2022-08-19T13:33:07;4.15;;;3.40;;
30173;SDS011;16985;50.814;8.530;2022-08-19T13:35:41;4.30;;;3.50;;
30173;SDS011;16985;50.814;8.530;2022-08-19T13:38:14;6.00;;;3.88;;
30173;SDS011;16985;50.814;8.530;2022-08-19T13:40:43;8.05;;;4.32;;
30173;SDS011;16985;50.814;8.530;2022-08-19T13:43:09;6.00;;;4.00;;
30173;SDS011;16985;50.814;8.530;2022-08-19T13:45:35;5.50;;;4.03;;
30173;SDS011;16985;50.814;8.530;2022-08-19T13:48:03;4.40;;;3.50;;
30173;SDS011;16985;50.814;8.530;2022-08-19T13:50:34;5.60;;;3.90;;
30173;SDS011;16985;50.814;8.530;2022-08-19T13:53:06;5.28;;;3.63;;
30173;SDS011;16985;50.814;8.530;2022-08-19T13:55:32;7.50;;;3.40;;
30173;SDS011;16985;50.814;8.530;2022-08-19T13:57:59;3.53;;;3.20;;
30173;SDS011;16985;50.814;8.530;2022-08-19T14:00:28;5.03;;;3.78;;
30173;SDS011;16985;50.814;8.530;2022-08-19T14:02:57;4.78;;;3.35;;
30173;SDS011;16985;50.814;8.530;2022-08-19T14:05:23;7.70;;;4.05;;
30173;SDS011;16985;50.814;8.530;2022-08-19T14:07:51;5.82;;;3.60;;
30173;SDS011;16985;50.814;8.530;2022-08-19T14:10:17;5.72;;;3.47;;
30173;SDS011;16985;50.814;8.530;2022-08-19T14:12:44;3.93;;;2.87;;
30173;SDS011;16985;50.814;8.530;2022-08-19T14:15:11;4.72;;;3.95;;
30173;SDS011;16985;50.814;8.530;2022-08-19T14:17:39;4.15;;;3.70;;
30173;SDS011;16985;50.814;8.530;2022-08-19T14:20:07;4.32;;;3.75;;
30173;SDS011;16985;50.814;8.530;2022-08-19T14:22:35;4.32;;;3.50;;
30173;SDS011;16985;50.814;8.530;2022-08-19T14:25:04;8.95;;;3.28;;
30173;SDS011;16985;50.814;8.530;2022-08-19T14:27:35;6.03;;;3.03;;
30173;SDS011;16985;50.814;8.530;2022-08-19T14:30:04;6.88;;;3.55;;
30173;SDS011;16985;50.814;8.530;2022-08-19T14:32:35;5.70;;;3.58;;
30173;SDS011;16985;50.814;8.530;2022-08-19T14:35:02;4.53;;;3.30;;
30173;SDS011;16985;50.814;8.530;2022-08-19T14:37:32;5.60;;;3.67;;
30173;SDS011;16985;50.814;8.530;2022-08-19T14:39:59;5.97;;;3.53;;
30173;SDS011;16985;50.814;8.530;2022-08-19T14:42:25;7.53;;;3.30;;
30173;SDS011;16985;50.814;8.530;2022-08-19T14:44:50;6.40;;;3.50;;
30173;SDS011;16985;50.814;8.530;2022-08-19T14:47:16;4.38;;;3.53;;
30173;SDS011;16985;50.814;8.530;2022-08-19T14:49:42;5.40;;;3.38;;
30173;SDS011;16985;50.814;8.530;2022-08-19T14:52:08;4.25;;;3.67;;
30173;SDS011;16985;50.814;8.530;2022-08-19T14:54:34;5.38;;;3.38;;
30173;SDS011;16985;50.814;8.530;2022-08-19T14:57:00;3.80;;;3.42;;
30173;SDS011;16985;50.814;8.530;2022-08-19T14:59:26;4.40;;;3.53;;
30173;SDS011;16985;50.814;8.530;2022-08-19T15:01:51;3.97;;;3.47;;
30173;SDS011;16985;50.814;8.530;2022-08-19T15:04:17;8.02;;;3.20;;
30173;SDS011;16985;50.814;8.530;2022-08-19T15:06:43;5.22;;;3.55;;
30173;SDS011;16985;50.814;8.530;2022-08-19T15:09:09;3.63;;;3.28;;
30173;SDS011;16985;50.814;8.530;2022-08-19T15:11:35;3.50;;;3.20;;
30173;SDS011;16985;50.814;8.530;2022-08-19T15:14:03;3.97;;;3.40;;
30173;SDS011;16985;50.814;8.530;2022-08-19T15:16:30;3.58;;;2.80;;
30173;SDS011;16985;50.814;8.530;2022-08-19T15:18:57;7.10;;;3.78;;
30173;SDS011;16985;50.814;8.530;2022-08-19T15:21:24;4.72;;;3.40;;
30173;SDS011;16985;50.814;8.530;2022-08-19T15:23:51;4.72;;;3.13;;